createdAt,value
2023-01-19T00:00:31.885Z,4.18
2023-01-19T00:02:58.477Z,4.03
2023-01-19T00:05:25.020Z,4.10
2023-01-19T00:07:51.609Z,3.30
2023-01-19T00:10:18.189Z,4.63
2023-01-19T00:12:44.827Z,4.85
2023-01-19T00:15:12.135Z,4.78
2023-01-19T00:17:38.674Z,5.10
2023-01-19T00:20:05.771Z,4.57
2023-01-19T00:22:32.303Z,4.35
2023-01-19T00:24:58.878Z,4.32
2023-01-19T00:27:25.367Z,5.53
2023-01-19T00:29:51.867Z,4.45
2023-01-19T00:32:18.428Z,4.88
2023-01-19T00:34:44.956Z,5.57
2023-01-19T00:37:11.724Z,4.32
2023-01-19T00:39:38.235Z,5.03
2023-01-19T00:42:04.767Z,5.65
2023-01-19T00:44:31.277Z,5.50
2023-01-19T00:46:57.829Z,5.00
2023-01-19T00:49:24.356Z,4.45
2023-01-19T00:51:50.873Z,4.90
2023-01-19T00:54:17.496Z,4.38
2023-01-19T00:56:43.991Z,4.65
2023-01-19T00:59:10.889Z,6.15
2023-01-19T01:01:45.351Z,5.65
2023-01-19T01:04:12.926Z,5.30
2023-01-19T01:06:39.610Z,3.97
2023-01-19T01:09:06.330Z,5.35
2023-01-19T01:11:32.873Z,5.25
2023-01-19T01:13:59.364Z,4.90
2023-01-19T01:16:26.208Z,3.55
2023-01-19T01:18:52.824Z,4.45
2023-01-19T01:21:19.378Z,4.95
2023-01-19T01:23:45.875Z,4.30
2023-01-19T01:26:12.433Z,4.97
2023-01-19T01:28:38.937Z,4.55
2023-01-19T01:31:05.491Z,4.55
2023-01-19T01:33:41.059Z,2.92
2023-01-19T01:36:09.857Z,3.30
2023-01-19T01:38:36.358Z,3.20
2023-01-19T01:41:02.967Z,4.05
2023-01-19T01:43:43.003Z,3.65
2023-01-19T01:46:09.603Z,4.63
2023-01-19T01:48:37.269Z,4.97
2023-01-19T01:51:13.616Z,3.88
2023-01-19T01:56:15.887Z,3.80
2023-01-19T01:58:42.911Z,3.90
2023-01-19T02:01:09.729Z,3.50
2023-01-19T02:03:36.581Z,2.70
2023-01-19T02:06:05.291Z,4.13
2023-01-19T02:08:38.092Z,5.65
2023-01-19T02:11:05.799Z,4.10
2023-01-19T02:13:35.367Z,3.63
2023-01-19T02:16:07.692Z,3.45
2023-01-19T02:18:34.885Z,3.97
2023-01-19T02:21:33.412Z,3.13
2023-01-19T02:24:00.642Z,3.13
2023-01-19T02:26:40.556Z,3.08
2023-01-19T02:29:13.131Z,3.80
2023-01-19T02:31:40.863Z,4.40
2023-01-19T02:34:10.447Z,3.83
2023-01-19T02:36:50.095Z,4.68
2023-01-19T02:39:19.852Z,3.47
2023-01-19T02:41:54.547Z,4.03
2023-01-19T02:44:23.292Z,3.83
2023-01-19T02:46:49.884Z,3.25
2023-01-19T02:49:16.411Z,4.43
2023-01-19T02:51:44.253Z,3.85
2023-01-19T02:54:32.510Z,4.38
2023-01-19T02:59:40.413Z,3.13
2023-01-19T03:02:25.089Z,3.97
2023-01-19T03:05:06.655Z,4.43
2023-01-19T03:07:44.664Z,3.78
2023-01-19T03:10:34.370Z,4.53
2023-01-19T03:13:13.736Z,2.30
2023-01-19T03:16:22.899Z,4.15
2023-01-19T03:18:56.278Z,3.97
2023-01-19T03:21:26.521Z,3.17
2023-01-19T03:23:56.966Z,3.60
2023-01-19T03:28:55.480Z,3.10
2023-01-19T03:31:26.095Z,2.95
2023-01-19T03:33:58.237Z,3.95
2023-01-19T03:36:32.489Z,4.07
2023-01-19T03:39:01.072Z,3.78
2023-01-19T03:41:29.493Z,3.15
2023-01-19T03:43:57.548Z,4.47
2023-01-19T03:46:25.954Z,4.28
2023-01-19T03:48:53.339Z,3.08
2023-01-19T03:51:21.564Z,3.55
2023-01-19T03:53:48.209Z,4.28
2023-01-19T03:56:25.140Z,2.28
2023-01-19T03:58:51.865Z,4.22
2023-01-19T04:01:19.470Z,3.60
2023-01-19T04:03:46.130Z,4.93
2023-01-19T04:06:13.683Z,3.97
2023-01-19T04:08:40.254Z,4.18
2023-01-19T04:11:06.986Z,4.07
2023-01-19T04:13:34.032Z,4.10
2023-01-19T04:16:04.752Z,4.95
2023-01-19T04:18:33.898Z,4.10
2023-01-19T04:21:06.369Z,4.45
2023-01-19T04:23:33.638Z,4.03
2023-01-19T04:26:02.045Z,4.43
2023-01-19T04:28:28.891Z,2.92
2023-01-19T04:30:56.314Z,4.47
2023-01-19T04:33:23.454Z,5.07
2023-01-19T04:35:52.845Z,4.18
2023-01-19T04:38:21.038Z,3.40
2023-01-19T04:40:49.104Z,4.43
2023-01-19T04:43:15.738Z,3.60
2023-01-19T04:45:42.291Z,4.32
2023-01-19T04:48:08.779Z,4.03
2023-01-19T04:50:35.315Z,4.18
2023-01-19T04:53:02.175Z,4.85
2023-01-19T04:55:29.008Z,4.97
2023-01-19T04:57:55.583Z,4.07
2023-01-19T05:00:22.438Z,4.05
2023-01-19T05:02:49.200Z,4.85
2023-01-19T05:05:15.852Z,3.78
2023-01-19T05:07:43.223Z,4.38
2023-01-19T05:10:10.802Z,4.07
2023-01-19T05:12:37.392Z,4.53
2023-01-19T05:15:04.354Z,6.15
2023-01-19T05:17:30.890Z,4.82
2023-01-19T05:19:57.432Z,5.47
2023-01-19T05:22:23.975Z,4.00
2023-01-19T05:24:50.534Z,5.43
2023-01-19T05:27:17.258Z,4.35
2023-01-19T05:29:43.824Z,6.07
2023-01-19T05:32:10.355Z,6.25
2023-01-19T05:34:36.867Z,6.47
2023-01-19T05:37:03.390Z,5.80
2023-01-19T05:39:29.918Z,6.57
2023-01-19T05:41:56.468Z,5.35
2023-01-19T05:44:22.965Z,6.28
2023-01-19T05:46:49.532Z,6.28
2023-01-19T05:49:16.292Z,7.60
2023-01-19T05:51:42.832Z,6.32
2023-01-19T05:54:09.325Z,6.70
2023-01-19T05:56:35.934Z,6.80
2023-01-19T05:59:02.523Z,7.85
2023-01-19T06:01:29.090Z,4.70
2023-01-19T06:03:55.649Z,7.63
2023-01-19T06:06:22.231Z,7.28
2023-01-19T06:08:48.741Z,6.82
2023-01-19T06:11:15.267Z,8.02
2023-01-19T06:13:42.251Z,8.23
2023-01-19T06:16:09.540Z,7.65
2023-01-19T06:18:36.209Z,8.40
2023-01-19T06:21:05.607Z,7.82
2023-01-19T06:23:32.952Z,7.13
2023-01-19T06:25:59.788Z,6.93
2023-01-19T06:28:26.448Z,6.72
2023-01-19T06:30:54.658Z,8.60
2023-01-19T06:33:21.579Z,8.98
2023-01-19T06:35:49.662Z,7.72
2023-01-19T06:38:17.041Z,8.02
2023-01-19T06:40:44.079Z,7.10
2023-01-19T06:43:10.786Z,7.85
2023-01-19T06:45:37.708Z,7.57
2023-01-19T06:48:04.250Z,7.47
2023-01-19T06:50:30.848Z,8.25
2023-01-19T06:52:57.507Z,9.32
2023-01-19T06:55:24.036Z,6.85
2023-01-19T06:58:00.057Z,7.75
2023-01-19T07:00:26.883Z,7.68
2023-01-19T07:02:53.605Z,8.07
2023-01-19T07:05:20.389Z,8.02
2023-01-19T07:07:52.295Z,7.93
2023-01-19T07:10:18.970Z,6.28
2023-01-19T07:12:45.516Z,7.30
2023-01-19T07:15:12.224Z,8.30
2023-01-19T07:17:38.747Z,7.63
2023-01-19T07:20:05.924Z,7.78
2023-01-19T07:22:32.459Z,8.73
2023-01-19T07:24:58.949Z,9.82
2023-01-19T07:27:26.093Z,7.43
2023-01-19T07:29:52.645Z,5.95
2023-01-19T07:32:19.183Z,6.95
2023-01-19T07:34:45.688Z,5.43
2023-01-19T07:37:12.194Z,8.70
2023-01-19T07:39:38.713Z,8.80
2023-01-19T07:42:05.250Z,9.23
2023-01-19T07:44:31.757Z,6.20
2023-01-19T07:46:58.288Z,8.27
2023-01-19T07:49:24.888Z,7.32
2023-01-19T07:51:51.372Z,9.60
2023-01-19T07:54:17.861Z,6.75
2023-01-19T07:56:44.418Z,9.68
2023-01-19T07:59:11.049Z,10.93
2023-01-19T08:01:37.680Z,8.57
2023-01-19T08:04:04.413Z,7.32
2023-01-19T08:06:34.835Z,9.20
2023-01-19T08:11:27.823Z,7.97
2023-01-19T08:13:54.346Z,10.38
2023-01-19T08:16:20.856Z,7.68
2023-01-19T08:18:47.427Z,7.93
2023-01-19T08:21:13.998Z,8.32
2023-01-19T08:23:40.607Z,9.23
2023-01-19T08:26:22.051Z,12.15
2023-01-19T08:28:48.591Z,8.73
2023-01-19T08:31:21.712Z,9.98
2023-01-19T08:33:49.163Z,8.95
2023-01-19T08:36:16.794Z,11.27
2023-01-19T08:38:45.189Z,12.68
2023-01-19T08:41:12.546Z,11.98
2023-01-19T08:43:39.131Z,9.38
2023-01-19T08:46:06.460Z,10.00
2023-01-19T08:48:33.350Z,9.30
2023-01-19T08:50:59.919Z,10.70
2023-01-19T08:53:26.499Z,11.07
2023-01-19T08:55:57.396Z,11.02
2023-01-19T08:58:24.177Z,10.63
2023-01-19T09:00:50.778Z,10.05
2023-01-19T09:03:17.707Z,11.07
2023-01-19T09:05:44.710Z,9.82
2023-01-19T09:08:12.886Z,11.57
2023-01-19T09:10:44.718Z,9.98
2023-01-19T09:13:11.918Z,10.63
2023-01-19T09:15:39.597Z,8.55
2023-01-19T09:18:13.358Z,11.43
2023-01-19T09:20:44.187Z,9.55
2023-01-19T09:23:12.067Z,8.90
2023-01-19T09:25:40.407Z,7.95
2023-01-19T09:28:08.830Z,12.27
2023-01-19T09:30:39.128Z,10.57
2023-01-19T09:33:11.798Z,11.80
2023-01-19T09:35:39.671Z,6.63
2023-01-19T09:38:06.968Z,11.25
2023-01-19T09:40:34.586Z,11.13
2023-01-19T09:43:28.149Z,10.38
2023-01-19T09:45:58.400Z,10.80
2023-01-19T09:51:18.675Z,6.90
2023-01-19T09:54:14.733Z,9.43
2023-01-19T09:56:45.991Z,9.93
2023-01-19T09:59:32.259Z,9.57
2023-01-19T10:02:05.142Z,9.35
2023-01-19T10:04:36.662Z,9.30
2023-01-19T10:07:31.241Z,9.07
2023-01-19T10:10:04.967Z,9.40
2023-01-19T10:12:43.539Z,9.30
2023-01-19T10:15:41.169Z,10.07
2023-01-19T10:18:27.819Z,11.65
2023-01-19T10:21:08.951Z,8.48
2023-01-19T10:24:13.203Z,8.88
2023-01-19T10:26:42.311Z,9.30
2023-01-19T10:29:26.147Z,8.45
2023-01-19T10:32:08.854Z,7.40
2023-01-19T10:34:35.732Z,7.28
2023-01-19T10:37:17.370Z,7.82
2023-01-19T10:39:53.773Z,7.53
2023-01-19T10:42:20.660Z,7.43
2023-01-19T10:44:47.266Z,6.72
2023-01-19T10:47:19.338Z,8.20
2023-01-19T10:49:47.547Z,8.05
2023-01-19T10:52:27.480Z,7.05
2023-01-19T10:54:54.955Z,7.93
2023-01-19T10:57:28.463Z,10.05
2023-01-19T10:59:55.037Z,6.95
2023-01-19T11:02:21.720Z,8.60
2023-01-19T11:04:50.430Z,8.07
2023-01-19T11:07:26.007Z,7.78
2023-01-19T11:10:17.940Z,7.32
2023-01-19T11:12:55.860Z,6.65
2023-01-19T11:15:25.373Z,7.22
2023-01-19T11:17:52.294Z,5.75
2023-01-19T11:20:23.039Z,8.90
2023-01-19T11:23:08.113Z,8.77
2023-01-19T11:25:35.930Z,8.02
2023-01-19T11:28:03.326Z,8.13
2023-01-19T11:30:30.730Z,8.90
2023-01-19T11:32:57.580Z,6.85
2023-01-19T11:35:50.487Z,8.82
2023-01-19T11:38:21.319Z,7.70
2023-01-19T11:40:59.256Z,7.53
2023-01-19T11:43:43.309Z,8.73
2023-01-19T11:46:16.232Z,8.40
2023-01-19T11:48:52.151Z,7.90
2023-01-19T11:51:21.551Z,8.30
2023-01-19T11:53:52.195Z,6.85
2023-01-19T11:56:23.350Z,8.35
2023-01-19T11:58:49.962Z,9.45
2023-01-19T12:01:24.103Z,12.90
2023-01-19T12:04:06.561Z,8.75
2023-01-19T12:06:35.643Z,8.60
2023-01-19T12:09:14.818Z,9.13
2023-01-19T12:11:48.823Z,7.53
2023-01-19T12:14:44.234Z,8.48
2023-01-19T12:17:20.115Z,8.52
2023-01-19T12:19:55.243Z,7.93
2023-01-19T12:22:22.956Z,6.30
2023-01-19T12:25:03.790Z,6.88
2023-01-19T12:27:40.562Z,6.88
2023-01-19T12:30:17.723Z,7.30
2023-01-19T12:32:44.329Z,6.38
2023-01-19T12:35:49.715Z,7.95
2023-01-19T12:38:47.235Z,7.85
2023-01-19T12:41:35.270Z,8.00
2023-01-19T12:44:10.980Z,7.93
2023-01-19T12:46:44.845Z,7.30
2023-01-19T12:49:32.318Z,7.43
2023-01-19T12:52:32.710Z,7.15
2023-01-19T12:55:15.103Z,7.63
2023-01-19T12:57:54.729Z,7.70
2023-01-19T13:00:34.178Z,6.55
2023-01-19T13:03:25.811Z,6.72
2023-01-19T13:05:54.713Z,7.85
2023-01-19T13:08:23.653Z,8.63
2023-01-19T13:10:54.156Z,9.45
2023-01-19T13:13:23.922Z,8.80
2023-01-19T13:15:51.754Z,7.90
2023-01-19T13:18:31.779Z,6.30
2023-01-19T13:21:04.768Z,8.80
2023-01-19T13:23:49.437Z,7.65
2023-01-19T13:26:21.656Z,8.32
2023-01-19T13:29:05.514Z,7.95
2023-01-19T13:31:40.254Z,9.27
2023-01-19T13:34:16.934Z,9.70
2023-01-19T13:36:51.499Z,8.68
2023-01-19T13:39:28.068Z,9.07
2023-01-19T13:41:57.596Z,9.38
2023-01-19T13:44:25.691Z,8.30
2023-01-19T13:46:53.784Z,9.50
2023-01-19T13:49:24.046Z,7.80
2023-01-19T13:54:32.317Z,8.98
2023-01-19T13:56:58.855Z,8.55
2023-01-19T13:59:25.429Z,9.30
2023-01-19T14:01:52.590Z,8.00
2023-01-19T14:04:26.062Z,8.05
2023-01-19T14:06:53.140Z,6.53
2023-01-19T14:09:20.141Z,7.25
2023-01-19T14:12:04.476Z,6.68
2023-01-19T14:14:31.347Z,6.10
2023-01-19T14:16:58.192Z,7.95
2023-01-19T14:19:24.799Z,8.07
2023-01-19T14:22:04.747Z,7.80
2023-01-19T14:24:31.427Z,6.70
2023-01-19T14:27:10.098Z,6.55
2023-01-19T14:29:37.551Z,6.25
2023-01-19T14:32:10.300Z,6.20
2023-01-19T14:34:45.637Z,6.35
2023-01-19T14:37:23.185Z,8.90
2023-01-19T14:39:55.179Z,9.57
2023-01-19T14:42:37.275Z,10.82
2023-01-19T14:45:20.734Z,9.77
2023-01-19T14:47:59.499Z,8.43
2023-01-19T14:50:31.443Z,7.80
2023-01-19T14:53:03.257Z,7.22
2023-01-19T14:55:49.639Z,8.80
2023-01-19T14:58:19.619Z,6.63
2023-01-19T15:00:47.558Z,7.10
2023-01-19T15:03:14.739Z,7.65
2023-01-19T15:05:45.311Z,9.23
2023-01-19T15:08:30.874Z,9.73
2023-01-19T15:10:58.230Z,8.05
2023-01-19T15:13:26.524Z,9.32
2023-01-19T15:15:53.457Z,7.15
2023-01-19T15:18:24.631Z,7.28
2023-01-19T15:20:51.164Z,6.85
2023-01-19T15:23:17.731Z,6.28
2023-01-19T15:25:44.491Z,7.13
2023-01-19T15:28:17.722Z,6.43
2023-01-19T15:30:44.577Z,7.05
2023-01-19T15:33:25.660Z,5.78
2023-01-19T15:35:52.893Z,7.80
2023-01-19T15:38:19.737Z,7.57
2023-01-19T15:40:51.416Z,7.18
2023-01-19T15:43:18.389Z,6.45
2023-01-19T15:46:01.159Z,5.95
2023-01-19T15:48:27.726Z,5.82
2023-01-19T15:50:54.352Z,5.38
2023-01-19T15:53:22.011Z,5.30
2023-01-19T15:55:51.172Z,5.78
2023-01-19T15:58:18.246Z,5.57
2023-01-19T16:00:44.843Z,4.75
2023-01-19T16:03:11.375Z,3.67
2023-01-19T16:05:43.053Z,4.80
2023-01-19T16:08:11.341Z,4.68
2023-01-19T16:10:37.918Z,5.70
2023-01-19T16:13:04.591Z,4.80
2023-01-19T16:15:31.138Z,5.22
2023-01-19T16:17:57.778Z,6.25
2023-01-19T16:20:24.270Z,5.78
2023-01-19T16:22:50.772Z,5.18
2023-01-19T16:25:17.327Z,4.85
2023-01-19T16:27:43.828Z,5.07
2023-01-19T16:30:11.960Z,3.85
2023-01-19T16:32:39.058Z,4.30
2023-01-19T16:35:06.060Z,2.97
2023-01-19T16:37:32.602Z,3.85
2023-01-19T16:39:59.739Z,3.75
2023-01-19T16:42:26.698Z,3.90
2023-01-19T16:44:53.252Z,3.55
2023-01-19T16:47:19.865Z,4.32
2023-01-19T16:49:46.455Z,4.28
2023-01-19T16:52:13.010Z,4.20
2023-01-19T16:54:42.224Z,4.97
2023-01-19T16:57:09.839Z,12.68
2023-01-19T16:59:36.774Z,9.48
2023-01-19T17:02:03.448Z,9.05
2023-01-19T17:04:30.056Z,6.05
2023-01-19T17:06:57.568Z,4.70
2023-01-19T17:09:24.241Z,8.45
2023-01-19T17:11:50.794Z,7.32
2023-01-19T17:14:18.644Z,5.95
2023-01-19T17:16:45.230Z,4.95
2023-01-19T17:19:17.411Z,4.93
2023-01-19T17:21:48.368Z,6.00
2023-01-19T17:24:15.750Z,5.15
2023-01-19T17:26:42.710Z,6.05
2023-01-19T17:29:10.063Z,5.20
2023-01-19T17:31:37.265Z,6.15
2023-01-19T17:34:04.284Z,6.22
2023-01-19T17:36:31.840Z,5.80
2023-01-19T17:39:00.250Z,6.22
2023-01-19T17:41:32.062Z,5.47
2023-01-19T17:43:59.962Z,6.72
2023-01-19T17:46:28.582Z,7.00
2023-01-19T17:49:00.768Z,7.28
2023-01-19T17:51:28.229Z,7.22
2023-01-19T17:53:55.579Z,6.13
2023-01-19T17:56:24.505Z,7.22
2023-01-19T17:58:51.112Z,10.40
2023-01-19T18:01:30.550Z,13.18
2023-01-19T18:03:58.061Z,7.10
2023-01-19T18:06:24.844Z,11.75
2023-01-19T18:08:51.782Z,6.07
2023-01-19T18:11:20.444Z,6.30
2023-01-19T18:13:48.488Z,7.10
2023-01-19T18:16:18.054Z,6.28
2023-01-19T18:18:44.644Z,6.22
2023-01-19T18:21:13.913Z,6.32
2023-01-19T18:23:41.176Z,6.22
2023-01-19T18:26:10.334Z,6.63
2023-01-19T18:28:37.370Z,6.35
2023-01-19T18:31:08.686Z,7.22
2023-01-19T18:33:35.922Z,6.00
2023-01-19T18:36:02.824Z,6.13
2023-01-19T18:38:29.409Z,5.25
2023-01-19T18:41:18.839Z,5.93
2023-01-19T18:43:45.953Z,5.40
2023-01-19T18:46:12.807Z,5.50
2023-01-19T18:48:39.785Z,5.65
2023-01-19T18:51:12.109Z,6.53
2023-01-19T18:53:39.301Z,6.38
2023-01-19T18:56:06.912Z,5.93
2023-01-19T18:58:36.270Z,5.55
2023-01-19T19:01:03.552Z,5.72
2023-01-19T19:03:31.089Z,6.32
2023-01-19T19:06:02.786Z,6.25
2023-01-19T19:08:29.335Z,6.60
2023-01-19T19:10:55.957Z,6.38
2023-01-19T19:13:22.505Z,6.68
2023-01-19T19:15:49.490Z,6.72
2023-01-19T19:18:16.083Z,6.07
2023-01-19T19:20:42.626Z,7.28
2023-01-19T19:23:10.867Z,6.63
2023-01-19T19:25:38.972Z,6.00
2023-01-19T19:28:06.014Z,6.28
2023-01-19T19:30:32.662Z,6.55
2023-01-19T19:32:59.223Z,5.47
2023-01-19T19:35:26.121Z,6.75
2023-01-19T19:37:52.663Z,6.72
2023-01-19T19:40:19.213Z,6.70
2023-01-19T19:42:45.718Z,6.72
2023-01-19T19:45:12.478Z,7.13
2023-01-19T19:47:38.962Z,6.72
2023-01-19T19:50:21.357Z,7.38
2023-01-19T19:52:47.896Z,6.32
2023-01-19T19:55:14.545Z,8.27
2023-01-19T19:57:41.196Z,8.20
2023-01-19T20:00:08.505Z,7.95
2023-01-19T20:02:35.107Z,7.50
2023-01-19T20:05:01.667Z,5.70
2023-01-19T20:07:28.874Z,7.18
2023-01-19T20:09:55.450Z,6.32
2023-01-19T20:12:22.411Z,6.18
2023-01-19T20:14:49.004Z,7.13
2023-01-19T20:17:15.577Z,7.10
2023-01-19T20:19:42.207Z,8.40
2023-01-19T20:22:08.821Z,8.00
2023-01-19T20:24:35.360Z,8.23
2023-01-19T20:27:01.943Z,7.75
2023-01-19T20:29:28.523Z,7.57
2023-01-19T20:31:56.207Z,8.55
2023-01-19T20:34:27.024Z,8.43
2023-01-19T20:36:54.026Z,7.22
2023-01-19T20:39:22.155Z,9.02
2023-01-19T20:41:51.021Z,8.93
2023-01-19T20:44:21.403Z,7.60
2023-01-19T20:46:48.920Z,7.57
2023-01-19T20:49:15.667Z,7.85
2023-01-19T20:51:42.344Z,6.95
2023-01-19T20:54:11.067Z,7.18
2023-01-19T20:56:37.817Z,7.13
2023-01-19T20:59:04.366Z,7.93
2023-01-19T21:01:31.009Z,6.68
2023-01-19T21:03:57.717Z,8.98
2023-01-19T21:06:24.458Z,6.57
2023-01-19T21:08:51.320Z,8.93
2023-01-19T21:11:19.431Z,10.27
2023-01-19T21:13:46.574Z,8.32
2023-01-19T21:16:13.346Z,7.63
2023-01-19T21:18:40.060Z,6.95
2023-01-19T21:21:09.102Z,6.35
2023-01-19T21:23:37.226Z,7.13
2023-01-19T21:26:06.920Z,6.95
2023-01-19T21:28:33.489Z,6.95
2023-01-19T21:31:09.365Z,6.53
2023-01-19T21:33:36.154Z,7.00
2023-01-19T21:36:02.705Z,7.78
2023-01-19T21:38:29.715Z,9.68
2023-01-19T21:40:57.540Z,18.10
2023-01-19T21:43:25.514Z,7.90
2023-01-19T21:45:52.462Z,9.02
2023-01-19T21:48:19.112Z,9.35
2023-01-19T21:50:45.693Z,34.40
2023-01-19T21:53:12.224Z,29.90
2023-01-19T21:55:43.537Z,28.75
2023-01-19T21:58:10.100Z,25.67
2023-01-19T22:00:36.651Z,22.23
2023-01-19T22:03:04.631Z,10.30
2023-01-19T22:05:36.630Z,7.75
2023-01-19T22:08:04.590Z,8.80
2023-01-19T22:10:31.148Z,8.88
2023-01-19T22:12:57.690Z,8.27
2023-01-19T22:15:24.252Z,9.68
2023-01-19T22:17:50.747Z,9.15
2023-01-19T22:20:17.421Z,8.45
2023-01-19T22:22:44.049Z,9.18
2023-01-19T22:25:10.827Z,10.00
2023-01-19T22:27:37.789Z,9.20
2023-01-19T22:30:04.723Z,8.93
2023-01-19T22:32:31.481Z,7.97
2023-01-19T22:34:58.204Z,7.75
2023-01-19T22:37:24.831Z,7.43
2023-01-19T22:39:52.954Z,9.90
2023-01-19T22:42:19.505Z,7.13
2023-01-19T22:44:46.121Z,7.75
2023-01-19T22:47:13.545Z,9.93
2023-01-19T22:49:42.961Z,9.32
2023-01-19T22:52:09.566Z,9.25
2023-01-19T22:54:36.054Z,8.32
2023-01-19T22:57:02.555Z,12.07
2023-01-19T22:59:29.208Z,10.27
2023-01-19T23:01:55.839Z,10.90
2023-01-19T23:04:22.491Z,9.75
2023-01-19T23:06:51.594Z,10.65
2023-01-19T23:09:18.220Z,10.00
2023-01-19T23:11:46.895Z,7.63
2023-01-19T23:14:15.763Z,9.38
2023-01-19T23:16:42.600Z,10.95
2023-01-19T23:19:11.406Z,9.10
2023-01-19T23:21:37.919Z,11.13
2023-01-19T23:24:04.716Z,7.53
2023-01-19T23:26:32.011Z,9.60
2023-01-19T23:29:01.615Z,9.13
2023-01-19T23:31:30.584Z,8.13
2023-01-19T23:33:59.386Z,8.05
2023-01-19T23:36:27.916Z,7.40
2023-01-19T23:38:56.662Z,7.15
2023-01-19T23:41:24.743Z,8.68
2023-01-19T23:43:51.796Z,9.18
2023-01-19T23:46:19.746Z,8.20
2023-01-19T23:48:47.000Z,6.65
2023-01-19T23:51:17.628Z,8.15
2023-01-19T23:53:44.227Z,8.55
2023-01-19T23:56:35.593Z,7.85
2023-01-19T23:59:04.881Z,6.78
